logo dgac
Lunes 20 de Mayo del 2019
Buscar por aerodromo o helipuerto
Ingrese nombre de aeródromo, localidad o designador OACI:
TAF: TAF SCMK 201114Z 2012/2024 18009KT CAVOK TN06/2012Z TX12/2019Z
TAF del 20/05/2019 a las 11:14 UTC
Período de validez: desde el 20 a las 12:00 UTC hasta el 20 a las 24:00 UTC
Viento: dirección 180 grados, velocidad 9 nudos
Visibilidad: 10 km o más,
    sin nubes bajo los 5.000 pies o bajo del MSA (Mínimo de Seguridad del Aeródromo),
    sin cumulonimbus, y sin fenómenos de tiempo significativo en el aeródromo o alrededores
Temperatura mínima: 6ºC el 20 a las 12:00 UTC
Temperatura máxima: 12ºC el 20 a las 19:00 UTC